Time;durP1;ratioP1;P1;durP2;ratioP2;P2;SDS_P1;SDS_P2;PMS_P1;PMS_P2;Temp;Humidity;BMP_temperature;BMP_pressure;BME280_temperature;BME280_humidity;BME280_pressure;Samples;Min_cycle;Max_cycle;Signal;HPM_P1;HPM_P2
2021/11/06 00:01:00;;;;;;;18.58;9.43;;;;;;;3.07;99.72;99973.19;5066733;28;20390;-65
2021/11/06 00:03:25;;;;;;;19.95;9.23;;;;;;;3.02;99.92;99975.66;5064087;28;20025;-65
2021/11/06 00:05:51;;;;;;;26.35;9.18;;;;;;;2.85;99.36;99969.00;5052640;28;20256;-65
2021/11/06 00:08:16;;;;;;;25.08;9.45;;;;;;;2.91;99.87;99971.81;5067647;28;20414;-65
2021/11/06 00:10:42;;;;;;;12.30;7.88;;;;;;;2.87;99.34;99972.56;5067289;28;20051;-65
2021/11/06 00:13:07;;;;;;;25.50;7.30;;;;;;;2.77;99.23;99973.09;5060375;28;20044;-65
2021/11/06 00:15:33;;;;;;;26.27;7.35;;;;;;;2.80;99.08;99973.19;5047543;28;20344;-65
2021/11/06 00:17:58;;;;;;;18.20;7.82;;;;;;;2.65;99.00;99972.69;5047650;28;20217;-65
2021/11/06 00:20:24;;;;;;;15.00;8.00;;;;;;;2.80;99.63;99973.19;5047201;28;20026;-65
2021/11/06 00:22:49;;;;;;;20.60;8.15;;;;;;;2.71;99.54;99972.00;5046093;28;20329;-65
2021/11/06 00:25:15;;;;;;;17.42;9.77;;;;;;;2.76;99.69;99973.94;5047220;28;20339;-65
2021/11/06 00:27:41;;;;;;;22.48;9.10;;;;;;;2.72;99.45;99979.84;5047205;28;20032;-65
2021/11/06 00:30:09;;;;;;;27.17;9.43;;;;;;;2.63;99.39;99969.19;5047213;28;20040;-65
2021/11/06 00:32:36;;;;;;;18.77;10.70;;;;;;;2.67;99.24;99980.53;5063596;28;20025;-65
2021/11/06 00:35:01;;;;;;;23.05;8.45;;;;;;;2.71;99.29;99967.69;5067131;28;20032;-65
2021/11/06 00:37:27;;;;;;;16.85;9.63;;;;;;;2.74;99.35;99973.00;5067303;28;20028;-65
2021/11/06 00:39:53;;;;;;;17.70;9.13;;;;;;;2.59;99.04;99977.69;5066916;28;20316;-65
2021/11/06 00:42:19;;;;;;;14.00;8.77;;;;;;;2.81;99.51;99967.16;5066799;28;20020;-65
2021/11/06 00:44:44;;;;;;;32.08;9.70;;;;;;;2.81;99.34;99974.09;5067034;28;20093;-65
2021/11/06 00:47:11;;;;;;;30.10;10.30;;;;;;;2.80;99.53;99973.19;5066470;28;20029;-65
2021/11/06 00:49:37;;;;;;;22.65;9.52;;;;;;;2.64;99.59;99973.53;5066733;28;20080;-65
2021/11/06 00:52:04;;;;;;;16.67;7.70;;;;;;;2.72;99.67;99974.66;5066938;28;20025;-65
2021/11/06 00:54:30;;;;;;;15.60;8.05;;;;;;;2.77;99.45;99973.09;5066516;28;20028;-65
2021/11/06 00:56:55;;;;;;;18.02;8.80;;;;;;;2.79;99.72;99981.84;5066921;28;20029;-65
2021/11/06 00:59:20;;;;;;;29.77;8.70;;;;;;;2.74;99.50;99978.19;5062196;28;20021;-65
2021/11/06 01:01:46;;;;;;;15.15;8.60;;;;;;;2.81;99.26;99974.94;5046747;28;20036;-65
2021/11/06 01:04:11;;;;;;;26.52;8.05;;;;;;;2.75;99.27;99982.56;5046416;28;20071;-65
2021/11/06 01:06:37;;;;;;;17.90;7.93;;;;;;;2.76;99.14;99975.66;5046588;28;20091;-65
2021/11/06 01:09:03;;;;;;;20.45;7.85;;;;;;;2.80;99.68;99987.91;5046728;28;20328;-65
2021/11/06 01:11:29;;;;;;;17.00;8.25;;;;;;;2.77;98.80;99993.91;5046554;28;20321;-65
2021/11/06 01:13:54;;;;;;;16.85;7.78;;;;;;;2.66;98.68;99979.66;5050517;28;20100;-65
2021/11/06 01:16:19;;;;;;;13.48;8.10;;;;;;;2.60;99.31;99979.47;5061370;28;20320;-65
2021/11/06 01:18:45;;;;;;;18.10;9.05;;;;;;;2.70;99.43;99980.63;5070239;28;20031;-65
2021/11/06 01:21:10;;;;;;;15.25;9.05;;;;;;;2.70;99.41;99989.34;5070074;28;20025;-65
2021/11/06 01:23:36;;;;;;;18.35;8.15;;;;;;;2.62;99.31;99988.19;5070480;28;20217;-65
2021/11/06 01:26:02;;;;;;;18.10;8.00;;;;;;;2.67;99.31;99986.63;5062038;28;20048;-65
2021/11/06 01:28:29;;;;;;;33.65;8.20;;;;;;;2.54;99.62;99979.25;5050545;28;20025;-65
2021/11/06 01:30:54;;;;;;;14.82;7.90;;;;;;;2.55;99.50;99978.41;5050096;28;20056;-65
2021/11/06 01:33:20;;;;;;;11.60;7.43;;;;;;;2.51;99.39;99973.97;5050622;28;20026;-65
2021/11/06 01:35:45;;;;;;;12.60;7.07;;;;;;;2.49;99.05;99975.63;5050329;28;20025;-65
2021/11/06 01:38:11;;;;;;;22.88;8.35;;;;;;;2.42;98.78;99976.25;5050199;28;20021;-65
2021/11/06 01:40:37;;;;;;;13.32;7.13;;;;;;;2.13;98.81;99963.97;5050224;28;20025;-65
2021/11/06 01:43:02;;;;;;;15.88;7.22;;;;;;;2.10;99.32;99958.69;5050077;28;20048;-65
2021/11/06 01:45:28;;;;;;;15.35;7.75;;;;;;;2.33;99.50;99972.44;5050106;28;20029;-65
2021/11/06 01:47:53;;;;;;;16.02;7.45;;;;;;;2.36;99.45;99968.25;5050009;28;20032;-65
2021/11/06 01:50:23;;;;;;;18.48;8.10;;;;;;;2.28;99.45;99964.50;5050095;28;20025;-65
2021/11/06 01:52:49;;;;;;;12.48;7.35;;;;;;;2.32;99.92;99970.69;5050502;28;20021;-65
2021/11/06 01:55:15;;;;;;;16.15;8.02;;;;;;;2.38;99.94;99961.38;5049905;28;20315;-65
2021/11/06 01:57:42;;;;;;;11.38;7.10;;;;;;;2.50;99.74;99966.13;5049675;28;20096;-65
2021/11/06 02:00:12;;;;;;;10.45;6.82;;;;;;;2.49;99.82;99954.81;5050051;28;20025;-65
2021/11/06 02:02:40;;;;;;;11.75;7.43;;;;;;;2.45;99.58;99952.06;5049216;28;20072;-65
2021/11/06 02:05:05;;;;;;;11.10;6.70;;;;;;;2.50;99.69;99951.38;5049389;28;20017;-65
2021/11/06 02:07:31;;;;;;;11.07;6.85;;;;;;;2.56;99.71;99961.97;5049207;28;20055;-65
2021/11/06 02:09:57;;;;;;;18.17;7.00;;;;;;;2.55;99.22;99954.13;5049506;28;20217;-65
2021/11/06 02:12:22;;;;;;;12.20;6.43;;;;;;;2.54;98.99;99958.47;5049919;28;20021;-65
2021/11/06 02:14:47;;;;;;;11.73;5.90;;;;;;;2.46;98.91;99949.53;5049912;28;20379;-65
2021/11/06 02:17:13;;;;;;;11.20;6.78;;;;;;;2.43;98.98;99959.81;5049660;28;20021;-65
2021/11/06 02:19:39;;;;;;;31.98;6.78;;;;;;;2.35;99.27;99950.00;5049748;28;20048;-65
2021/11/06 02:22:04;;;;;;;18.65;6.50;;;;;;;2.43;99.62;99952.00;5056681;28;20063;-65
2021/11/06 02:24:30;;;;;;;24.77;6.75;;;;;;;2.35;100.00;99950.91;5068428;28;20305;-65
2021/11/06 02:26:55;;;;;;;13.98;7.72;;;;;;;2.43;99.96;99949.41;5069106;28;20044;-65
2021/11/06 02:29:21;;;;;;;11.38;6.78;;;;;;;2.34;100.00;99943.06;5069489;28;20017;-65
2021/11/06 02:31:48;;;;;;;12.45;6.82;;;;;;;2.22;100.00;99943.53;5069669;28;20025;-65
2021/11/06 02:34:13;;;;;;;12.07;5.95;;;;;;;2.10;99.62;99945.69;5069194;28;20317;-65
2021/11/06 02:36:39;;;;;;;17.88;6.32;;;;;;;2.28;99.74;99944.59;5069010;28;20027;-65
2021/11/06 02:39:06;;;;;;;10.10;6.45;;;;;;;2.31;99.72;99938.59;5069122;28;20048;-65
2021/11/06 02:41:33;;;;;;;12.57;6.35;;;;;;;2.23;99.36;99932.28;5068905;28;20040;-65
2021/11/06 02:44:09;;;;;;;27.42;6.38;;;;;;;2.12;99.44;99925.88;5069567;28;20021;-65
2021/11/06 02:46:36;;;;;;;12.45;6.97;;;;;;;2.09;99.25;99931.81;5067362;28;20027;-65
2021/11/06 02:49:03;;;;;;;12.88;6.18;;;;;;;2.19;99.44;99933.03;5068702;28;20024;-65
2021/11/06 02:51:28;;;;;;;9.57;6.45;;;;;;;2.21;99.00;99937.44;5068779;28;20040;-65
2021/11/06 02:53:53;;;;;;;10.05;5.97;;;;;;;2.14;99.40;99929.38;5068902;28;20080;-65
2021/11/06 02:56:22;;;;;;;11.23;6.32;;;;;;;2.17;98.88;99927.78;5069014;28;20359;-65
2021/11/06 02:58:48;;;;;;;9.52;6.07;;;;;;;2.13;98.29;99932.81;5068955;28;20025;-65
2021/11/06 03:01:13;;;;;;;10.23;5.82;;;;;;;2.12;98.33;99931.06;5068534;28;20036;-65
2021/11/06 03:03:38;;;;;;;9.80;6.18;;;;;;;2.09;98.08;99928.34;5067985;28;20382;-65
2021/11/06 03:06:04;;;;;;;10.98;6.15;;;;;;;2.07;98.11;99932.59;5068810;28;20025;-65
2021/11/06 03:08:29;;;;;;;14.52;5.75;;;;;;;2.00;97.92;99933.22;5068766;28;20079;-65
2021/11/06 03:10:55;;;;;;;10.85;5.80;;;;;;;2.02;98.24;99927.25;5067220;28;20028;-65
2021/11/06 03:13:21;;;;;;;12.00;6.22;;;;;;;2.01;98.12;99940.16;5068432;28;20025;-65
2021/11/06 03:15:46;;;;;;;11.63;6.68;;;;;;;1.79;98.40;99930.75;5068904;28;20350;-65
2021/11/06 03:18:11;;;;;;;11.50;6.30;;;;;;;1.76;98.93;99925.44;5068340;28;20025;-65
2021/11/06 03:20:37;;;;;;;10.07;5.78;;;;;;;1.83;99.15;99937.81;5068758;28;20032;-65
2021/11/06 03:23:02;;;;;;;10.27;6.38;;;;;;;1.88;99.20;99945.75;5068185;28;20047;-65
2021/11/06 03:25:28;;;;;;;15.07;5.85;;;;;;;1.80;99.00;99936.81;5068248;28;20100;-65
2021/11/06 03:27:56;;;;;;;16.13;5.85;;;;;;;1.69;99.06;99938.16;5068258;28;20035;-65
2021/11/06 03:30:22;;;;;;;11.20;5.78;;;;;;;1.73;99.32;99934.81;5068375;28;20047;-65
2021/11/06 03:32:47;;;;;;;25.75;5.75;;;;;;;1.81;99.20;99943.78;5068360;28;20328;-65
2021/11/06 03:35:13;;;;;;;11.07;5.18;;;;;;;1.80;98.96;99936.81;5067997;28;20051;-65
2021/11/06 03:37:39;;;;;;;11.15;6.47;;;;;;;1.88;99.03;99944.06;5068240;28;20020;-65
2021/11/06 03:40:05;;;;;;;12.55;6.03;;;;;;;1.88;98.66;99950.97;5068008;28;20029;-65
2021/11/06 03:42:31;;;;;;;12.30;5.88;;;;;;;1.82;98.93;99955.94;5067557;28;20025;-65
2021/11/06 03:44:57;;;;;;;13.82;6.18;;;;;;;1.73;99.44;99950.41;5067057;28;20025;-65
2021/11/06 03:47:22;;;;;;;11.25;6.03;;;;;;;1.84;99.31;99951.69;5047888;28;20029;-65
2021/11/06 03:49:48;;;;;;;9.27;5.15;;;;;;;1.97;99.47;99952.16;5047825;28;20048;-65
2021/11/06 03:52:14;;;;;;;21.90;5.28;;;;;;;2.02;99.09;99954.91;5056742;28;20074;-65
2021/11/06 03:54:41;;;;;;;22.42;5.32;;;;;;;2.05;98.84;99955.03;5064587;28;20024;-65
2021/11/06 03:57:07;;;;;;;21.20;4.60;;;;;;;1.98;98.78;99958.22;5065038;28;20025;-65
2021/11/06 03:59:32;;;;;;;7.60;4.35;;;;;;;2.01;98.71;99958.34;5064517;28;20036;-65
2021/11/06 04:01:58;;;;;;;17.92;4.32;;;;;;;1.92;98.81;99963.22;5064350;28;20024;-65
2021/11/06 04:04:24;;;;;;;19.38;5.10;;;;;;;1.88;98.72;99966.53;5064284;28;20025;-65
2021/11/06 04:06:49;;;;;;;9.00;3.78;;;;;;;1.76;98.95;99961.78;5064645;28;20024;-65
2021/11/06 04:09:14;;;;;;;15.50;5.13;;;;;;;1.82;99.88;99966.31;5045375;28;20031;-65
2021/11/06 04:11:40;;;;;;;11.95;4.38;;;;;;;1.76;100.00;99966.09;5044290;28;20071;-65
2021/11/06 04:14:06;;;;;;;20.80;3.88;;;;;;;1.75;99.69;99969.53;5044521;28;20068;-65
2021/11/06 04:16:31;;;;;;;13.07;3.17;;;;;;;1.82;99.40;99971.50;5044514;28;20221;-65
2021/11/06 04:18:57;;;;;;;10.02;3.92;;;;;;;1.85;99.70;99972.50;5044148;28;20028;-65
2021/11/06 04:21:22;;;;;;;4.97;3.33;;;;;;;1.94;99.08;99974.53;5044010;28;20041;-65
2021/11/06 04:23:48;;;;;;;9.48;4.35;;;;;;;1.94;98.92;99978.03;5044282;28;20080;-65
2021/11/06 04:26:13;;;;;;;9.02;4.30;;;;;;;1.93;98.73;99975.38;5044167;28;20030;-65
2021/11/06 04:28:39;;;;;;;24.77;4.30;;;;;;;1.84;98.40;99980.25;5044102;28;20029;-65
2021/11/06 04:31:04;;;;;;;17.83;4.15;;;;;;;1.77;99.00;99973.06;5044039;28;20025;-65
2021/11/06 04:33:30;;;;;;;23.90;3.55;;;;;;;1.36;99.17;99979.28;5044071;28;20083;-65
2021/11/06 04:35:55;;;;;;;22.10;4.18;;;;;;;1.36;99.59;99981.03;5050778;28;20098;-65
2021/11/06 04:38:20;;;;;;;15.20;4.05;;;;;;;1.45;99.86;99978.75;5064149;28;20021;-65
2021/11/06 04:40:46;;;;;;;33.90;4.95;;;;;;;1.48;100.00;99971.06;5063888;28;20024;-65
2021/11/06 04:43:12;;;;;;;11.30;4.88;;;;;;;1.50;100.00;99977.22;5063229;28;20036;-65
2021/11/06 04:45:37;;;;;;;9.30;4.82;;;;;;;1.68;100.00;99977.91;5063797;28;20190;-65
2021/11/06 04:48:03;;;;;;;16.95;5.00;;;;;;;1.80;100.00;99984.44;5063274;28;20051;-65
2021/11/06 04:50:28;;;;;;;23.70;5.28;;;;;;;1.90;100.00;99986.50;5063780;28;20329;-65
2021/11/06 04:52:54;;;;;;;12.00;4.68;;;;;;;1.89;100.00;99991.66;5063810;28;20319;-65
2021/11/06 04:55:19;;;;;;;22.23;5.18;;;;;;;1.84;99.89;99983.69;5064054;28;20021;-65
2021/11/06 04:57:45;;;;;;;30.45;5.10;;;;;;;1.83;99.77;99978.44;5064017;28;20359;-65
2021/11/06 05:00:15;;;;;;;16.02;4.45;;;;;;;1.94;99.74;99982.34;5063714;28;20082;-65
2021/11/06 05:02:40;;;;;;;18.63;4.82;;;;;;;1.95;100.00;99986.69;5063553;28;20032;-65
2021/11/06 05:05:07;;;;;;;9.43;4.85;;;;;;;1.89;100.00;99983.88;5063684;28;20084;-65
2021/11/06 05:07:33;;;;;;;14.15;5.18;;;;;;;2.01;99.95;99984.31;5063687;28;20025;-65
2021/11/06 05:09:59;;;;;;;23.50;4.82;;;;;;;1.94;99.78;99987.53;5063644;28;20025;-65
2021/11/06 05:12:25;;;;;;;11.93;5.05;;;;;;;1.99;99.68;99983.34;5063381;28;20084;-65
2021/11/06 05:14:51;;;;;;;17.17;4.85;;;;;;;2.05;99.87;99980.97;5063534;28;20023;-65
2021/11/06 05:17:18;;;;;;;8.38;4.72;;;;;;;2.07;99.81;99985.44;5063802;28;20021;-65
2021/11/06 05:19:44;;;;;;;23.70;5.28;;;;;;;1.91;99.55;99980.53;5062378;28;20025;-65
2021/11/06 05:22:10;;;;;;;25.90;5.28;;;;;;;1.90;99.57;99980.47;5063443;28;20051;-65
2021/11/06 05:24:37;;;;;;;41.83;6.03;;;;;;;1.87;99.89;99981.22;5050467;28;20063;-65
2021/11/06 05:27:03;;;;;;;17.08;4.90;;;;;;;2.00;100.00;99987.75;5043528;28;20036;-65
2021/11/06 05:29:29;;;;;;;22.50;4.85;;;;;;;1.98;99.95;99986.78;5043469;28;20076;-65
2021/11/06 05:31:54;;;;;;;26.70;5.60;;;;;;;2.01;100.00;99985.22;5052538;28;20312;-65
2021/11/06 05:34:20;;;;;;;10.00;4.88;;;;;;;2.05;100.00;99991.38;5063129;28;20217;-65
2021/11/06 05:36:45;;;;;;;8.15;4.90;;;;;;;2.02;100.00;99981.78;5063328;28;20021;-65
2021/11/06 05:39:11;;;;;;;21.25;4.72;;;;;;;1.96;100.00;99985.84;5063319;28;20033;-65
2021/11/06 05:41:36;;;;;;;19.27;4.88;;;;;;;1.95;100.00;99984.09;5063295;28;20324;-65
2021/11/06 05:44:02;;;;;;;21.92;5.50;;;;;;;1.98;100.00;99989.41;5063230;28;20067;-65
2021/11/06 05:46:28;;;;;;;12.27;4.95;;;;;;;2.09;100.00;99998.47;5063278;28;20163;-65
2021/11/06 05:48:53;;;;;;;10.70;5.32;;;;;;;2.14;100.00;100002.09;5063202;28;20029;-65
2021/11/06 05:51:18;;;;;;;7.93;5.00;;;;;;;2.02;100.00;100006.84;5063229;28;20088;-65
2021/11/06 05:53:44;;;;;;;19.85;5.40;;;;;;;1.87;100.00;100007.16;5063183;28;20085;-65
2021/11/06 05:56:09;;;;;;;12.27;5.25;;;;;;;2.08;100.00;100004.47;5063207;28;20057;-65
2021/11/06 05:58:35;;;;;;;25.13;5.53;;;;;;;1.99;100.00;100004.13;5063187;28;20090;-65
2021/11/06 06:01:00;;;;;;;26.00;5.78;;;;;;;1.99;100.00;100006.72;5066734;28;20029;-65
2021/11/06 06:03:26;;;;;;;10.52;5.57;;;;;;;2.09;100.00;100014.03;5066592;28;20021;-65
2021/11/06 06:05:51;;;;;;;16.27;5.60;;;;;;;2.16;100.00;100016.03;5066452;28;20025;-65
2021/11/06 06:08:17;;;;;;;8.07;4.72;;;;;;;2.09;100.00;100011.44;5066825;28;20027;-65
2021/11/06 06:10:44;;;;;;;15.60;5.05;;;;;;;2.01;100.00;100018.06;5066808;28;20056;-65
2021/11/06 06:13:09;;;;;;;18.45;5.43;;;;;;;1.97;100.00;100011.00;5066737;28;20066;-65
2021/11/06 06:15:35;;;;;;;10.20;5.13;;;;;;;2.13;100.00;100021.09;5066528;28;20056;-65
2021/11/06 06:18:00;;;;;;;18.25;5.68;;;;;;;2.28;100.00;100021.66;5066503;28;20033;-65
2021/11/06 06:20:26;;;;;;;20.98;5.40;;;;;;;2.11;100.00;100022.75;5066379;28;20031;-65
2021/11/06 06:22:51;;;;;;;17.75;5.70;;;;;;;2.14;99.92;100028.97;5048340;28;20049;-65
2021/11/06 06:25:17;;;;;;;17.15;5.85;;;;;;;2.20;99.97;100030.88;5046333;28;20225;-65
2021/11/06 06:27:42;;;;;;;17.55;5.20;;;;;;;2.19;99.88;100031.72;5046243;28;20029;-65
2021/11/06 06:30:11;;;;;;;11.82;5.32;;;;;;;2.25;99.79;100030.22;5046205;28;20225;-65
2021/11/06 06:32:38;;;;;;;26.70;5.55;;;;;;;1.84;99.94;100025.22;5046198;28;20040;-65
2021/11/06 06:35:05;;;;;;;33.75;6.43;;;;;;;1.99;100.00;100027.50;5047278;28;20044;-65
2021/11/06 06:37:30;;;;;;;39.38;6.03;;;;;;;1.82;100.00;100034.69;5046193;28;20052;-65
2021/11/06 06:39:55;;;;;;;22.42;5.93;;;;;;;1.90;100.00;100033.25;5046073;28;20025;-65
2021/11/06 06:42:23;;;;;;;19.67;6.47;;;;;;;2.14;100.00;100035.84;5046006;28;20175;-65
2021/11/06 06:44:49;;;;;;;14.30;4.97;;;;;;;2.23;100.00;100033.59;5045932;28;20032;-65
2021/11/06 06:47:15;;;;;;;41.95;6.15;;;;;;;2.21;100.00;100040.44;5045956;28;20033;-65
2021/11/06 06:49:40;;;;;;;9.20;4.70;;;;;;;2.20;99.79;100043.88;5045892;28;20029;-65
2021/11/06 06:52:06;;;;;;;11.45;5.43;;;;;;;2.38;100.00;100049.72;5045827;28;20021;-65
2021/11/06 06:54:32;;;;;;;16.80;6.05;;;;;;;2.46;99.61;100048.25;5045820;28;20077;-65
2021/11/06 06:56:57;;;;;;;16.25;5.80;;;;;;;2.48;99.53;100057.00;5044017;28;20085;-66
2021/11/06 06:59:23;;;;;;;20.42;5.68;;;;;;;2.47;98.70;100052.66;5048646;28;20033;-65
2021/11/06 07:01:49;;;;;;;19.45;5.70;;;;;;;2.44;97.81;100060.34;5064716;28;20044;-65
2021/11/06 07:04:15;;;;;;;16.55;5.63;;;;;;;2.39;98.07;100046.28;5051266;28;20017;-65
2021/11/06 07:06:40;;;;;;;11.60;5.78;;;;;;;2.36;98.70;100051.38;5044643;28;20032;-65
2021/11/06 07:09:05;;;;;;;25.23;5.18;;;;;;;2.34;98.92;100059.94;5044178;28;20021;-65
2021/11/06 07:11:31;;;;;;;13.32;5.13;;;;;;;2.38;98.88;100054.03;5044108;28;20025;-65
2021/11/06 07:13:56;;;;;;;21.77;4.90;;;;;;;2.30;99.53;100061.53;5044483;28;20080;-65
2021/11/06 07:16:23;;;;;;;40.38;5.72;;;;;;;2.13;99.70;100052.28;5044426;28;20029;-65
2021/11/06 07:18:49;;;;;;;46.05;6.20;;;;;;;2.23;99.59;100054.38;5044403;28;20029;-65
2021/11/06 07:21:14;;;;;;;29.70;5.70;;;;;;;2.33;100.00;100061.66;5043760;28;20332;-65
2021/11/06 07:23:40;;;;;;;11.35;5.22;;;;;;;2.50;100.00;100057.94;5044253;28;20025;-65
2021/11/06 07:26:05;;;;;;;11.15;5.45;;;;;;;2.56;99.77;100055.53;5043109;28;20333;-65
2021/11/06 07:28:32;;;;;;;14.75;5.13;;;;;;;2.55;99.10;100064.19;5044445;28;20084;-65
2021/11/06 07:30:58;;;;;;;8.30;4.97;;;;;;;2.71;99.17;100061.28;5044209;28;20025;-65
2021/11/06 07:33:24;;;;;;;43.15;8.05;;;;;;;2.52;98.63;100063.19;5044143;28;20429;-65
2021/11/06 07:35:49;;;;;;;17.02;6.22;;;;;;;2.48;98.44;100057.00;5043886;28;20021;-65
2021/11/06 07:38:15;;;;;;;17.58;7.00;;;;;;;2.48;98.72;100057.00;5044046;28;20032;-65
2021/11/06 07:40:41;;;;;;;15.98;6.32;;;;;;;2.65;99.49;100055.88;5043963;28;20025;-65
2021/11/06 07:43:06;;;;;;;25.35;7.03;;;;;;;2.85;99.33;100064.34;5043852;28;20025;-65
2021/11/06 07:45:33;;;;;;;23.15;7.03;;;;;;;2.82;99.93;100069.44;5043893;28;20025;-65
2021/11/06 07:47:58;;;;;;;26.13;8.50;;;;;;;2.75;99.58;100073.53;5043450;28;20047;-65
2021/11/06 07:50:24;;;;;;;15.35;5.80;;;;;;;2.96;100.00;100079.47;5043770;28;20044;-65
2021/11/06 07:52:50;;;;;;;53.45;7.22;;;;;;;2.95;99.14;100082.91;5051631;28;20017;-65
2021/11/06 07:55:16;;;;;;;35.67;7.15;;;;;;;2.94;98.69;100083.72;5063645;28;20091;-65
2021/11/06 07:57:41;;;;;;;52.92;8.55;;;;;;;2.79;98.18;100080.63;5063632;28;20350;-65
2021/11/06 08:00:10;;;;;;;14.95;6.57;;;;;;;2.92;98.44;100082.81;5063331;28;20024;-65
2021/11/06 08:02:37;;;;;;;28.58;8.18;;;;;;;3.12;98.35;100097.34;5048519;28;20324;-65
2021/11/06 08:05:03;;;;;;;17.98;7.28;;;;;;;3.16;98.61;100094.00;5043531;28;20018;-65
2021/11/06 08:07:28;;;;;;;35.20;6.78;;;;;;;3.14;97.95;100098.31;5044116;28;20025;-65
2021/11/06 08:09:54;;;;;;;22.17;5.85;;;;;;;3.16;97.56;100104.44;5061985;28;20023;-65
2021/11/06 08:12:19;;;;;;;17.17;7.13;;;;;;;3.17;96.78;100098.41;5049478;28;20041;-65
2021/11/06 08:14:44;;;;;;;31.80;7.32;;;;;;;3.14;97.00;100100.00;5062370;28;20012;-65
2021/11/06 08:17:10;;;;;;;16.40;6.68;;;;;;;3.18;97.56;100102.75;5061431;28;20052;-65
2021/11/06 08:19:36;;;;;;;18.67;6.50;;;;;;;3.22;96.94;100104.63;5062471;28;20020;-65
2021/11/06 08:22:02;;;;;;;34.45;7.45;;;;;;;3.27;98.34;100103.06;5053904;28;20053;-66
2021/11/06 08:24:27;;;;;;;21.02;7.40;;;;;;;3.34;98.25;100105.03;5065048;28;20090;-66
2021/11/06 08:26:53;;;;;;;12.90;6.43;;;;;;;3.32;97.77;100104.09;5071367;28;20021;-65
2021/11/06 08:29:19;;;;;;;12.40;5.90;;;;;;;3.25;98.37;100104.72;5051707;28;20021;-65
2021/11/06 08:31:44;;;;;;;13.75;6.65;;;;;;;3.36;97.77;100111.16;5071679;28;20055;-65
2021/11/06 08:34:10;;;;;;;44.13;7.75;;;;;;;3.24;98.74;100104.69;5055049;28;20216;-65
2021/11/06 08:36:36;;;;;;;18.00;6.07;;;;;;;3.40;98.07;100110.44;5051152;28;20053;-65
2021/11/06 08:39:03;;;;;;;56.50;6.80;;;;;;;3.40;97.81;100102.63;5048878;28;20201;-65
2021/11/06 08:41:29;;;;;;;41.15;7.63;;;;;;;3.57;97.70;100100.53;5050138;28;20056;-65
2021/11/06 08:43:54;;;;;;;22.02;7.13;;;;;;;3.67;97.14;100111.28;5049016;28;20014;-65
2021/11/06 08:46:20;;;;;;;33.97;6.90;;;;;;;3.74;98.24;100112.38;5049891;28;20032;-65
2021/11/06 08:48:45;;;;;;;19.65;8.02;;;;;;;3.80;97.47;100113.44;5047204;28;20021;-65
2021/11/06 08:51:11;;;;;;;30.83;7.60;;;;;;;3.86;97.70;100105.81;5056809;28;20305;-65
2021/11/06 08:53:36;;;;;;;18.98;6.90;;;;;;;3.84;97.75;100110.13;5045648;28;20040;-65
2021/11/06 08:56:02;;;;;;;18.83;7.50;;;;;;;3.89;97.47;100103.31;5046920;28;20044;-65
2021/11/06 08:58:27;;;;;;;19.90;7.80;;;;;;;3.88;97.47;100109.38;5060953;28;20033;-65
2021/11/06 09:00:54;;;;;;;16.08;7.28;;;;;;;3.94;97.15;100101.75;5062016;28;20036;-65
2021/11/06 09:03:22;;;;;;;15.90;8.05;;;;;;;4.03;96.66;100102.03;5050310;28;20041;-65
2021/11/06 09:05:51;;;;;;;22.25;8.68;;;;;;;4.06;96.63;100107.31;5057257;28;20021;-65
2021/11/06 09:08:28;;;;;;;50.00;9.52;;;;;;;3.85;98.58;100108.38;5061946;28;20324;-65
2021/11/06 09:10:56;;;;;;;24.48;9.85;;;;;;;3.95;98.23;100113.03;5061177;28;20358;-65
2021/11/06 09:13:26;;;;;;;23.92;8.40;;;;;;;4.10;97.85;100101.34;5060788;28;20109;-65
2021/11/06 09:15:52;;;;;;;41.45;9.43;;;;;;;4.16;96.85;100106.75;5061897;28;20343;-65
2021/11/06 09:18:17;;;;;;;69.65;9.75;;;;;;;3.82;98.03;100101.38;5062128;28;20020;-65
2021/11/06 09:20:43;;;;;;;61.92;10.32;;;;;;;4.07;97.96;100101.25;5061553;28;20063;-65
2021/11/06 09:23:08;;;;;;;37.22;10.18;;;;;;;4.29;97.61;100108.88;5044783;28;20040;-65
2021/11/06 09:25:33;;;;;;;39.58;10.38;;;;;;;4.29;98.05;100111.47;5053777;28;20032;-65
2021/11/06 09:27:59;;;;;;;41.92;9.20;;;;;;;4.56;98.79;100111.38;5062017;28;20029;-65
2021/11/06 09:30:25;;;;;;;21.40;9.60;;;;;;;4.57;97.09;100109.63;5061999;28;20036;-65
2021/11/06 09:32:50;;;;;;;30.83;9.35;;;;;;;4.69;97.44;100112.56;5059310;28;20029;-65
2021/11/06 09:35:15;;;;;;;23.10;7.65;;;;;;;4.77;97.53;100116.28;5046452;28;20013;-65
2021/11/06 09:37:41;;;;;;;30.25;9.32;;;;;;;4.91;97.16;100115.81;5046343;28;20025;-65
2021/11/06 09:40:09;;;;;;;44.05;9.25;;;;;;;4.92;97.08;100117.56;5048566;28;20098;-65
2021/11/06 09:42:39;;;;;;;86.53;9.60;;;;;;;4.86;96.80;100111.28;5064599;28;20058;-65
2021/11/06 09:45:08;;;;;;;36.00;9.43;;;;;;;4.98;96.42;100116.84;5064906;28;20259;-65
2021/11/06 09:47:33;;;;;;;63.13;8.95;;;;;;;4.90;96.59;100121.84;5065593;28;20044;-65
2021/11/06 09:49:59;;;;;;;32.35;9.15;;;;;;;5.04;96.08;100119.63;5057006;28;20021;-65
2021/11/06 09:52:24;;;;;;;27.50;9.25;;;;;;;5.21;96.92;100120.91;5054470;28;20031;-65
2021/11/06 09:54:50;;;;;;;36.13;10.43;;;;;;;5.29;96.89;100120.28;5046292;28;20048;-65
2021/11/06 09:57:16;;;;;;;55.88;9.80;;;;;;;4.97;96.56;100109.88;5060809;28;20048;-65
2021/11/06 09:59:42;;;;;;;25.95;8.80;;;;;;;5.27;97.35;100111.53;5064707;28;20027;-65
2021/11/06 10:02:07;;;;;;;33.47;9.93;;;;;;;5.35;97.61;100111.72;5065457;28;20017;-65
2021/11/06 10:04:33;;;;;;;29.45;9.68;;;;;;;5.62;97.18;100109.75;5047708;28;20025;-65
2021/11/06 10:07:15;;;;;;;42.15;9.00;;;;;;;5.50;95.00;100114.69;5052907;28;20040;-65
2021/11/06 10:09:41;;;;;;;;;;;;;;;5.69;96.09;100116.88;5046565;28;20368;-65
2021/11/06 10:12:06;;;;;;;22.52;8.75;;;;;;;5.71;95.14;100104.75;5045267;28;19947;-65
2021/11/06 10:14:33;;;;;;;20.92;8.95;;;;;;;5.70;95.80;100113.44;5045619;28;20021;-65
2021/11/06 10:17:01;;;;;;;32.53;10.13;;;;;;;5.85;96.39;100108.59;5045605;28;20225;-65
2021/11/06 10:19:36;;;;;;;27.65;13.02;;;;;;;6.01;95.85;100105.50;5049112;28;20035;-65
2021/11/06 10:22:11;;;;;;;83.07;13.65;;;;;;;5.67;94.75;100095.09;5049646;28;20052;-65
2021/11/06 10:24:47;;;;;;;25.13;11.65;;;;;;;5.91;96.56;100103.50;5044961;28;20045;-65
2021/11/06 10:27:22;;;;;;;29.73;12.25;;;;;;;6.03;97.13;100109.91;5045444;28;20025;-65
2021/11/06 10:30:02;;;;;;;38.97;12.18;;;;;;;6.17;97.63;100097.13;5045508;28;20021;-65
2021/11/06 10:32:28;;;;;;;31.83;13.30;;;;;;;5.97;96.92;100098.41;5062842;28;20328;-64
2021/11/06 10:34:53;;;;;;;34.58;12.23;;;;;;;6.01;98.22;100095.03;5064740;28;20063;-64
2021/11/06 10:37:20;;;;;;;27.48;10.32;;;;;;;6.35;98.09;100097.50;5064517;28;20036;-64
2021/11/06 10:39:56;;;;;;;35.30;12.23;;;;;;;6.50;97.54;100092.59;5065069;28;20029;-65
2021/11/06 10:42:22;;;;;;;38.28;13.05;;;;;;;6.56;97.61;100088.34;5065232;28;20216;-65
2021/11/06 10:44:47;;;;;;;32.65;12.93;;;;;;;6.74;97.71;100093.03;5064154;28;20036;-65
2021/11/06 10:47:13;;;;;;;25.48;11.45;;;;;;;6.85;97.04;100085.41;5057384;28;20035;-65
2021/11/06 10:49:49;;;;;;;34.33;11.13;;;;;;;6.87;97.85;100084.59;5051324;28;20028;-65
2021/11/06 10:52:18;;;;;;;34.30;11.35;;;;;;;6.97;97.61;100081.28;5053469;28;20013;-65
2021/11/06 10:54:58;;;;;;;24.25;11.50;;;;;;;6.96;97.38;100084.72;5059549;28;20017;-65
2021/11/06 10:57:25;;;;;;;22.77;11.25;;;;;;;7.06;95.99;100078.84;5047212;28;20021;-65
2021/11/06 11:00:18;;;;;;;22.83;10.85;;;;;;;7.11;95.26;100066.69;5055847;28;20313;-65
2021/11/06 11:02:43;;;;;;;24.08;11.50;;;;;;;7.18;95.48;100071.16;5048120;28;20028;-65
2021/11/06 11:05:30;;;;;;;25.33;11.55;;;;;;;7.09;96.69;100073.63;5050325;28;20088;-65
2021/11/06 11:08:06;;;;;;;25.95;12.15;;;;;;;7.24;97.50;100071.28;5049929;28;20036;-65
2021/11/06 11:10:32;;;;;;;25.75;11.85;;;;;;;7.37;96.87;100068.00;5052474;28;20088;-65
2021/11/06 11:13:11;;;;;;;31.52;13.02;;;;;;;7.49;97.25;100068.19;5057339;28;20032;-65
2021/11/06 11:15:39;;;;;;;27.77;13.25;;;;;;;7.62;96.85;100064.00;5050207;28;20017;-65
2021/11/06 11:18:04;;;;;;;27.20;12.88;;;;;;;7.69;96.50;100061.50;5046347;28;20016;-65
2021/11/06 11:20:32;;;;;;;27.42;13.35;;;;;;;7.61;96.72;100063.16;5058996;28;20023;-65
2021/11/06 11:23:16;;;;;;;23.02;11.38;;;;;;;7.65;95.90;100062.31;5059776;28;20059;-65